Main page
METAR-TAF:

METAR-TAF

Airports :

Cairo International Airport

Cairo, Egypt

latitude: 30-08N, longitude: 031-24E, elevation: 64 m

Current weather observation

The report was made 41 minutes ago, at 00:30 UTC
Wind 4 kt from the East/Northeast
Temperature 27°C
Humidity 79%
Pressure 1007 hPa
Visibility 10 km or more
no clouds below 1500 m and no cumulonimbus

METAR: HECA 100030Z 06004KT CAVOK 27/23 Q1007 NOSIG

Time: 03:11 (01:11 UTC)

Forecast

The report was made 2 hours and 11 minutes ago, at 23:00 UTC
Forecast valid from 10 at 00 UTC to 11 at 06 UTC
Wind 8 kt from the North
Visibility 10 km or more
Scattered clouds at a height of 2500 ft
Temporary
from 10 at 00 UTC to 10 at 08 UTC
Wind 3 kt from variable directions
Visibility: 4000 m
Broken clouds at a height of 2500 ft
mist
Probability 40%
from 10 at 03 UTC to 10 at 06 UTC
Visibility: 2000 m

TAF: HECA 092300Z 1000/1106 01008KT 9999 SCT025 TEMPO 1000/1008 VRB03KT 4000 BR BKN025 PROB40 1003/1006 2000

Weather observations and forecasts of more than 4000 airports (METAR and TAF reports).

The available stations are represented by yellow and red dots on the map.

Hover mouse over dot to see the name of the station.

Then click to see weather observations and forecasts.

To change the map : click on the green buttons with a black cross to zoom in, on the green button with a dash to zoom out, or on the green arrows for adjacent maps.


METAR-TAF: